createdAt,value
2017-10-12T00:01:40.927Z,2.30
2017-10-12T00:04:09.407Z,2.23
2017-10-12T00:06:37.685Z,2.03
2017-10-12T00:09:05.151Z,1.40
2017-10-12T00:11:32.655Z,1.27
2017-10-12T00:14:00.101Z,1.60
2017-10-12T00:16:27.576Z,1.70
2017-10-12T00:18:55.037Z,2.33
2017-10-12T00:21:22.499Z,2.80
2017-10-12T00:23:49.988Z,3.43
2017-10-12T00:26:17.460Z,4.03
2017-10-12T00:28:45.719Z,5.50
2017-10-12T00:31:13.183Z,4.73
2017-10-12T00:33:41.420Z,4.70
2017-10-12T00:36:08.884Z,4.33
2017-10-12T00:38:36.375Z,4.60
2017-10-12T00:41:04.607Z,4.80
2017-10-12T00:43:32.091Z,4.70
2017-10-12T00:46:00.323Z,3.57
2017-10-12T00:48:27.782Z,5.37
2017-10-12T00:50:55.279Z,4.87
2017-10-12T00:53:22.755Z,4.20
2017-10-12T00:55:51.013Z,4.03
2017-10-12T00:58:18.484Z,5.17
2017-10-12T01:00:46.755Z,4.33
2017-10-12T01:03:14.321Z,3.60
2017-10-12T01:05:42.144Z,4.90
2017-10-12T01:08:09.616Z,4.70
2017-10-12T01:10:37.874Z,4.53
2017-10-12T01:13:05.355Z,4.40
2017-10-12T01:15:32.853Z,3.97
2017-10-12T01:18:00.373Z,4.47
2017-10-12T01:20:27.842Z,3.73
2017-10-12T01:22:56.078Z,4.33
2017-10-12T01:25:23.573Z,4.20
2017-10-12T01:27:51.042Z,4.37
2017-10-12T01:30:19.321Z,4.20
2017-10-12T01:32:47.566Z,3.37
2017-10-12T01:35:15.129Z,3.37
2017-10-12T01:37:42.683Z,3.67
2017-10-12T01:40:10.155Z,3.17
2017-10-12T01:42:37.624Z,3.80
2017-10-12T01:45:05.878Z,3.30
2017-10-12T01:47:33.409Z,4.03
2017-10-12T01:50:00.907Z,3.10
2017-10-12T01:52:29.173Z,3.40
2017-10-12T01:54:56.727Z,2.80
2017-10-12T01:57:24.199Z,4.70
2017-10-12T01:59:52.443Z,3.50
2017-10-12T02:02:19.911Z,4.77
2017-10-12T02:04:47.397Z,4.47
2017-10-12T02:07:15.672Z,4.50
2017-10-12T02:09:43.898Z,3.60
2017-10-12T02:12:11.367Z,3.10
2017-10-12T02:14:38.830Z,4.90
2017-10-12T02:17:06.299Z,3.47
2017-10-12T02:19:34.216Z,3.67
2017-10-12T02:22:01.680Z,3.80
2017-10-12T02:24:29.155Z,4.00
2017-10-12T02:26:56.639Z,4.07
2017-10-12T02:29:24.107Z,3.03
2017-10-12T02:31:53.082Z,3.20
2017-10-12T02:34:20.572Z,3.93
2017-10-12T02:36:48.800Z,3.63
2017-10-12T02:39:16.286Z,3.23
2017-10-12T02:41:44.544Z,3.50
2017-10-12T02:44:12.029Z,4.00
2017-10-12T02:46:40.264Z,4.03
2017-10-12T02:49:07.739Z,3.90
2017-10-12T02:51:37.189Z,6.73
2017-10-12T02:54:04.660Z,3.10
2017-10-12T02:56:32.132Z,2.60
2017-10-12T02:58:59.608Z,3.80
2017-10-12T03:01:27.088Z,3.63
2017-10-12T03:03:55.323Z,3.10
2017-10-12T03:06:22.897Z,4.10
2017-10-12T03:08:50.456Z,3.23
2017-10-12T03:11:17.932Z,3.27
2017-10-12T03:13:46.179Z,3.83
2017-10-12T03:16:13.639Z,3.93
2017-10-12T03:18:41.123Z,3.80
2017-10-12T03:21:08.679Z,3.63
2017-10-12T03:23:36.934Z,3.17
2017-10-12T03:26:04.413Z,2.80
2017-10-12T03:28:32.657Z,2.93
2017-10-12T03:31:00.852Z,2.90
2017-10-12T03:33:28.330Z,3.30
2017-10-12T03:35:55.801Z,3.10
2017-10-12T03:38:24.035Z,2.63
2017-10-12T03:40:52.310Z,2.97
2017-10-12T03:43:19.774Z,2.50
2017-10-12T03:45:48.025Z,3.00
2017-10-12T03:48:15.511Z,3.00
2017-10-12T03:50:43.747Z,3.67
2017-10-12T03:53:11.343Z,2.87
2017-10-12T03:55:39.603Z,3.53
2017-10-12T03:58:07.067Z,2.80
2017-10-12T04:00:34.536Z,3.00
2017-10-12T04:03:02.771Z,3.90
2017-10-12T04:05:30.357Z,2.87
2017-10-12T04:07:57.912Z,3.30
2017-10-12T04:10:25.418Z,3.40
2017-10-12T04:12:52.883Z,2.43
2017-10-12T04:15:21.359Z,3.00
2017-10-12T04:17:48.866Z,3.77
2017-10-12T04:20:17.139Z,2.90
2017-10-12T04:22:44.594Z,3.07
2017-10-12T04:25:12.135Z,3.67
2017-10-12T04:27:39.716Z,2.20
2017-10-12T04:30:07.995Z,2.90
2017-10-12T04:32:36.976Z,3.20
2017-10-12T04:35:04.594Z,3.00
2017-10-12T04:37:32.079Z,2.70
2017-10-12T04:39:59.644Z,2.93
2017-10-12T04:42:27.116Z,2.87
2017-10-12T04:44:54.667Z,3.23
2017-10-12T04:47:22.136Z,4.07
2017-10-12T04:49:49.644Z,3.60
2017-10-12T04:52:17.130Z,3.37
2017-10-12T04:54:44.602Z,3.10
2017-10-12T04:57:12.323Z,2.20
2017-10-12T04:59:39.808Z,3.40
2017-10-12T05:02:07.290Z,3.67
2017-10-12T05:04:34.764Z,2.63
2017-10-12T05:07:02.247Z,2.87
2017-10-12T05:09:29.750Z,3.43
2017-10-12T05:11:57.316Z,2.73
2017-10-12T05:14:24.878Z,2.90
2017-10-12T05:16:52.431Z,2.50
2017-10-12T05:19:19.904Z,2.70
2017-10-12T05:21:48.164Z,2.43
2017-10-12T05:24:16.434Z,3.20
2017-10-12T05:26:44.624Z,3.20
2017-10-12T05:29:12.884Z,2.80
2017-10-12T05:31:40.355Z,3.50
2017-10-12T05:34:08.607Z,3.07
2017-10-12T05:36:36.078Z,2.43
2017-10-12T05:39:03.550Z,3.00
2017-10-12T05:41:31.791Z,3.60
2017-10-12T05:43:59.259Z,2.63
2017-10-12T05:46:26.734Z,4.10
2017-10-12T05:48:54.980Z,2.73
2017-10-12T05:51:22.444Z,2.40
2017-10-12T05:53:49.915Z,2.70
2017-10-12T05:56:18.168Z,2.70
2017-10-12T05:58:45.641Z,3.00
2017-10-12T06:01:13.119Z,2.57
2017-10-12T06:03:41.383Z,2.87
2017-10-12T06:06:09.615Z,3.20
2017-10-12T06:08:37.135Z,4.03
2017-10-12T06:11:04.664Z,3.13
2017-10-12T06:13:32.142Z,3.27
2017-10-12T06:16:00.375Z,3.17
2017-10-12T06:18:27.955Z,3.43
2017-10-12T06:20:55.511Z,3.00
2017-10-12T06:23:22.991Z,4.67
2017-10-12T06:25:51.365Z,2.90
2017-10-12T06:28:19.622Z,2.13
2017-10-12T06:30:47.197Z,2.70
2017-10-12T06:33:15.476Z,3.33
2017-10-12T06:35:43.715Z,3.13
2017-10-12T06:38:11.183Z,3.60
2017-10-12T06:40:38.800Z,3.17
2017-10-12T06:43:06.325Z,2.90
2017-10-12T06:45:33.837Z,2.97
2017-10-12T06:48:01.315Z,2.70
2017-10-12T06:50:28.775Z,3.73
2017-10-12T06:52:56.244Z,2.00
2017-10-12T06:55:23.716Z,3.17
2017-10-12T06:57:51.975Z,2.63
2017-10-12T07:00:19.428Z,2.40
2017-10-12T07:02:46.901Z,4.07
2017-10-12T07:05:15.140Z,3.03
2017-10-12T07:07:42.593Z,3.33
2017-10-12T07:10:10.080Z,2.37
2017-10-12T07:12:37.536Z,2.13
2017-10-12T07:15:05.770Z,2.60
2017-10-12T07:17:33.243Z,1.77
2017-10-12T07:20:00.712Z,2.17
2017-10-12T07:22:28.266Z,3.10
2017-10-12T07:24:55.745Z,2.57
2017-10-12T07:27:23.984Z,3.27
2017-10-12T07:29:51.465Z,2.53
2017-10-12T07:32:18.930Z,2.50
2017-10-12T07:34:47.150Z,2.40
2017-10-12T07:37:14.747Z,2.37
2017-10-12T07:39:42.236Z,2.60
2017-10-12T07:42:10.460Z,2.70
2017-10-12T07:44:37.943Z,2.73
2017-10-12T07:47:06.188Z,2.10
2017-10-12T07:49:33.667Z,2.17
2017-10-12T07:52:02.667Z,2.77
2017-10-12T07:54:30.227Z,2.60
2017-10-12T07:56:57.705Z,2.23
2017-10-12T07:59:25.964Z,2.80
2017-10-12T08:01:54.232Z,2.70
2017-10-12T08:04:21.687Z,2.13
2017-10-12T08:06:49.153Z,2.60
2017-10-12T08:09:17.399Z,2.20
2017-10-12T08:11:44.916Z,3.00
2017-10-12T08:14:12.409Z,2.37
2017-10-12T08:16:39.955Z,1.87
2017-10-12T08:19:07.437Z,2.53
2017-10-12T08:21:34.902Z,2.27
2017-10-12T08:24:02.379Z,2.13
2017-10-12T08:26:30.612Z,2.50
2017-10-12T08:28:58.072Z,2.30
2017-10-12T08:31:25.551Z,2.87
2017-10-12T08:33:53.007Z,2.53
2017-10-12T08:36:20.472Z,2.20
2017-10-12T08:38:48.335Z,2.10
2017-10-12T08:41:17.666Z,2.10
2017-10-12T08:43:46.133Z,3.10
2017-10-12T08:46:13.756Z,3.50
2017-10-12T08:48:41.268Z,2.73
2017-10-12T08:51:08.886Z,2.47
2017-10-12T08:53:36.415Z,2.30
2017-10-12T08:56:03.898Z,2.30
2017-10-12T08:58:31.371Z,2.30
2017-10-12T09:00:58.839Z,1.77
2017-10-12T09:03:27.090Z,2.07
2017-10-12T09:05:54.579Z,3.03
2017-10-12T09:08:22.056Z,1.37
2017-10-12T09:10:49.520Z,2.40
2017-10-12T09:13:16.988Z,1.90
2017-10-12T09:15:44.462Z,2.03
2017-10-12T09:18:11.930Z,2.43
2017-10-12T09:20:39.417Z,1.83
2017-10-12T09:23:07.669Z,2.30
2017-10-12T09:25:35.146Z,1.93
2017-10-12T09:28:03.333Z,2.37
2017-10-12T09:30:30.807Z,2.10
2017-10-12T09:32:58.271Z,1.40
2017-10-12T09:35:25.765Z,2.27
2017-10-12T09:37:53.844Z,2.10
2017-10-12T09:40:21.307Z,1.80
2017-10-12T09:42:49.543Z,1.80
2017-10-12T09:45:17.131Z,2.40
2017-10-12T09:47:44.691Z,2.80
2017-10-12T09:50:12.185Z,1.53
2017-10-12T09:52:39.961Z,2.60
2017-10-12T09:55:07.465Z,1.60
2017-10-12T09:57:34.926Z,1.70
2017-10-12T10:00:02.400Z,2.00
2017-10-12T10:02:30.628Z,1.60
2017-10-12T10:04:58.106Z,2.27
2017-10-12T10:07:25.579Z,2.13
2017-10-12T10:09:53.841Z,1.93
2017-10-12T10:12:21.299Z,2.10
2017-10-12T10:14:48.771Z,1.87
2017-10-12T10:17:17.000Z,1.83
2017-10-12T10:19:44.450Z,2.23
2017-10-12T10:22:11.928Z,1.43
2017-10-12T10:24:39.383Z,1.87
2017-10-12T10:27:06.846Z,1.60
2017-10-12T10:29:34.427Z,2.37
2017-10-12T10:32:02.648Z,1.63
2017-10-12T10:34:30.143Z,2.23
2017-10-12T10:36:57.623Z,1.20
2017-10-12T10:39:25.879Z,1.13
2017-10-12T10:41:54.103Z,1.57
2017-10-12T10:44:21.620Z,1.77
2017-10-12T10:46:49.852Z,1.97
2017-10-12T10:49:17.303Z,1.60
2017-10-12T10:51:44.786Z,1.63
2017-10-12T10:54:12.255Z,2.30
2017-10-12T10:56:39.720Z,2.07
2017-10-12T10:59:07.183Z,1.97
2017-10-12T11:01:35.427Z,1.50
2017-10-12T11:04:02.891Z,2.37
2017-10-12T11:06:30.367Z,1.83
2017-10-12T11:08:58.591Z,1.70
2017-10-12T11:11:26.087Z,1.73
2017-10-12T11:13:53.560Z,1.47
2017-10-12T11:16:21.835Z,1.73
2017-10-12T11:18:49.296Z,2.63
2017-10-12T11:21:17.548Z,2.03
2017-10-12T11:23:45.015Z,2.80
2017-10-12T11:26:12.462Z,1.57
2017-10-12T11:28:39.943Z,2.20
2017-10-12T11:31:08.168Z,1.93
2017-10-12T11:33:35.635Z,2.17
2017-10-12T11:36:03.117Z,2.07
2017-10-12T11:38:31.362Z,1.40
2017-10-12T11:40:58.848Z,1.50
2017-10-12T11:43:26.320Z,1.40
2017-10-12T11:45:54.540Z,2.07
2017-10-12T11:48:21.998Z,1.73
2017-10-12T11:50:49.464Z,1.60
2017-10-12T11:53:16.931Z,1.53
2017-10-12T11:55:44.392Z,2.30
2017-10-12T11:58:11.859Z,1.87
2017-10-12T12:00:39.339Z,1.83
2017-10-12T12:03:07.621Z,2.00
2017-10-12T12:05:35.867Z,1.50
2017-10-12T12:08:03.328Z,1.23
2017-10-12T12:10:30.792Z,1.23
2017-10-12T12:12:59.034Z,1.27
2017-10-12T12:15:26.492Z,1.90
2017-10-12T12:17:53.954Z,1.17
2017-10-12T12:20:21.429Z,1.90
2017-10-12T12:22:48.935Z,2.13
2017-10-12T12:25:16.416Z,1.87
2017-10-12T12:27:43.894Z,1.90
2017-10-12T12:30:11.351Z,2.20
2017-10-12T12:32:38.828Z,1.83
2017-10-12T12:35:07.076Z,2.17
2017-10-12T12:37:34.552Z,2.40
2017-10-12T12:40:02.797Z,1.63
2017-10-12T12:42:30.260Z,1.70
2017-10-12T12:44:57.773Z,1.73
2017-10-12T12:47:25.238Z,1.70
2017-10-12T12:49:52.711Z,1.30
2017-10-12T12:52:20.211Z,2.00
2017-10-12T12:54:48.479Z,2.27
2017-10-12T12:57:16.951Z,3.90
2017-10-12T12:59:44.429Z,1.90
2017-10-12T13:02:12.660Z,1.57
2017-10-12T13:04:40.112Z,2.33
2017-10-12T13:07:07.590Z,1.53
2017-10-12T13:09:35.046Z,1.93
2017-10-12T13:12:02.507Z,1.83
2017-10-12T13:14:30.679Z,1.13
2017-10-12T13:16:58.148Z,1.27
2017-10-12T13:19:25.643Z,1.50
2017-10-12T13:21:53.106Z,1.73
2017-10-12T13:24:20.575Z,1.63
2017-10-12T13:26:48.048Z,1.33
2017-10-12T13:29:15.527Z,1.70
2017-10-12T13:31:43.070Z,1.73
2017-10-12T13:34:10.544Z,2.20
2017-10-12T13:36:38.003Z,1.73
2017-10-12T13:39:05.471Z,1.43
2017-10-12T13:41:33.715Z,1.30
2017-10-12T13:44:01.222Z,1.40
2017-10-12T13:46:29.443Z,1.40
2017-10-12T13:48:56.910Z,1.90
2017-10-12T13:51:24.372Z,1.63
2017-10-12T13:53:51.831Z,1.60
2017-10-12T13:56:19.333Z,1.63
2017-10-12T13:58:46.793Z,1.50
2017-10-12T14:01:14.258Z,1.90
2017-10-12T14:03:41.736Z,1.37
2017-10-12T14:06:09.196Z,1.40
2017-10-12T14:08:36.652Z,1.70
2017-10-12T14:11:04.124Z,1.67
2017-10-12T14:13:31.634Z,1.37
2017-10-12T14:15:59.088Z,1.53
2017-10-12T14:18:26.559Z,1.50
2017-10-12T14:20:54.022Z,1.83
2017-10-12T14:23:21.482Z,1.40
2017-10-12T14:25:48.953Z,1.43
2017-10-12T14:28:16.410Z,1.83
2017-10-12T14:30:43.873Z,1.53
2017-10-12T14:33:11.335Z,1.10
2017-10-12T14:35:38.804Z,1.70
2017-10-12T14:38:06.256Z,1.50
2017-10-12T14:40:33.740Z,1.70
2017-10-12T14:43:01.972Z,1.37
2017-10-12T14:45:29.426Z,1.43
2017-10-12T14:47:56.900Z,1.70
2017-10-12T14:50:24.352Z,1.50
2017-10-12T14:52:51.814Z,1.53
2017-10-12T14:55:19.274Z,1.47
2017-10-12T14:57:47.503Z,2.10
2017-10-12T15:00:14.966Z,1.73
2017-10-12T15:02:42.436Z,1.80
2017-10-12T15:05:09.900Z,1.67
2017-10-12T15:07:37.376Z,2.13
2017-10-12T15:10:04.899Z,2.10
2017-10-12T15:12:32.385Z,2.10
2017-10-12T15:14:59.849Z,2.20
2017-10-12T15:17:27.332Z,2.30
2017-10-12T15:19:54.793Z,1.80
2017-10-12T15:22:22.260Z,2.60
2017-10-12T15:24:49.742Z,1.97
2017-10-12T15:27:17.212Z,2.13
2017-10-12T15:29:44.713Z,1.63
2017-10-12T15:32:12.192Z,3.20
2017-10-12T15:34:39.652Z,2.47
2017-10-12T15:37:07.099Z,2.87
2017-10-12T15:39:34.567Z,2.77
2017-10-12T15:42:02.034Z,2.03
2017-10-12T15:44:29.488Z,2.70
2017-10-12T15:46:56.959Z,3.10
2017-10-12T15:49:24.420Z,3.03
2017-10-12T15:51:51.896Z,3.20
2017-10-12T15:54:19.371Z,2.50
2017-10-12T15:56:47.594Z,2.60
2017-10-12T15:59:15.074Z,2.87
2017-10-12T16:01:42.536Z,2.67
2017-10-12T16:04:10.007Z,3.03
2017-10-12T16:06:38.267Z,2.70
2017-10-12T16:09:05.739Z,2.70
2017-10-12T16:11:33.972Z,3.07
2017-10-12T16:14:01.454Z,3.40
2017-10-12T16:16:28.910Z,3.33
2017-10-12T16:18:56.375Z,3.50
2017-10-12T16:21:23.863Z,2.70
2017-10-12T16:23:51.332Z,2.90
2017-10-12T16:26:18.782Z,2.73
2017-10-12T16:28:46.259Z,3.70
2017-10-12T16:31:13.714Z,3.40
2017-10-12T16:33:41.173Z,3.40
2017-10-12T16:36:08.653Z,2.93
2017-10-12T16:38:36.120Z,3.80
2017-10-12T16:41:03.580Z,2.70
2017-10-12T16:43:31.053Z,3.10
2017-10-12T16:45:59.276Z,4.70
2017-10-12T16:48:26.736Z,3.50
2017-10-12T16:50:54.246Z,1.97
2017-10-12T16:53:22.504Z,3.83
2017-10-12T16:55:50.751Z,3.80
2017-10-12T16:58:18.233Z,3.50
2017-10-12T17:00:45.688Z,3.63
2017-10-12T17:03:13.201Z,3.93
2017-10-12T17:05:40.664Z,2.73
2017-10-12T17:08:08.222Z,2.83
2017-10-12T17:13:03.158Z,3.90
2017-10-12T17:15:30.614Z,2.63
2017-10-12T17:17:59.002Z,3.30
2017-10-12T17:20:26.484Z,3.70
2017-10-12T17:22:53.972Z,2.53
2017-10-12T17:25:21.439Z,3.23
2017-10-12T17:27:48.917Z,3.10
2017-10-12T17:30:16.388Z,3.40
2017-10-12T17:32:43.852Z,2.77
2017-10-12T17:35:12.139Z,3.47
2017-10-12T17:37:40.376Z,3.00
2017-10-12T17:40:07.847Z,2.97
2017-10-12T17:42:36.179Z,3.10
2017-10-12T17:45:03.660Z,3.27
2017-10-12T17:47:31.127Z,3.03
2017-10-12T17:49:58.595Z,4.03
2017-10-12T17:52:26.055Z,3.03
2017-10-12T17:54:53.562Z,2.47
2017-10-12T17:57:21.038Z,3.50
2017-10-12T17:59:48.508Z,3.07
2017-10-12T18:02:15.992Z,3.63
2017-10-12T18:07:11.727Z,3.67
2017-10-12T18:09:40.702Z,4.53
2017-10-12T18:12:23.141Z,2.93
2017-10-12T18:14:35.639Z,3.63
2017-10-12T18:17:03.875Z,4.33
2017-10-12T18:19:31.361Z,2.80
2017-10-12T18:21:58.940Z,3.77
2017-10-12T18:24:27.179Z,3.87
2017-10-12T18:26:54.659Z,3.10
2017-10-12T18:29:22.119Z,4.17
2017-10-12T18:31:49.575Z,3.77
2017-10-12T18:34:17.064Z,2.87
2017-10-12T18:36:44.529Z,4.13
2017-10-12T18:39:11.994Z,3.57
2017-10-12T18:41:39.464Z,2.50
2017-10-12T18:44:06.938Z,3.40
2017-10-12T18:46:34.399Z,2.97
2017-10-12T18:49:01.886Z,3.33
2017-10-12T18:51:30.150Z,3.77
2017-10-12T18:53:58.435Z,3.33
2017-10-12T18:56:26.694Z,3.20
2017-10-12T18:58:54.160Z,5.20
2017-10-12T19:01:21.621Z,5.00
2017-10-12T19:03:49.895Z,3.07
2017-10-12T19:06:18.124Z,4.37
2017-10-12T19:08:45.583Z,4.03
2017-10-12T19:11:13.080Z,3.90
2017-10-12T19:13:41.360Z,4.17
2017-10-12T19:16:09.590Z,3.40
2017-10-12T19:18:37.087Z,3.90
2017-10-12T19:21:04.544Z,3.10
2017-10-12T19:23:32.780Z,3.77
2017-10-12T19:26:00.296Z,3.53
2017-10-12T19:30:56.024Z,3.47
2017-10-12T19:33:24.277Z,4.00
2017-10-12T19:35:51.731Z,3.10
2017-10-12T19:38:19.196Z,3.20
2017-10-12T19:43:14.157Z,4.00
2017-10-12T19:45:41.616Z,4.10
2017-10-12T19:48:09.121Z,3.50
2017-10-12T19:50:36.584Z,3.80
2017-10-12T19:53:04.811Z,3.77
2017-10-12T19:55:32.289Z,4.00
2017-10-12T19:57:59.808Z,4.87
2017-10-12T20:00:27.271Z,4.97
2017-10-12T20:02:54.784Z,3.70
2017-10-12T20:05:22.250Z,5.27
2017-10-12T20:07:51.423Z,4.70
2017-10-12T20:10:18.888Z,4.10
2017-10-12T20:12:46.444Z,5.37
2017-10-12T20:15:14.008Z,3.87
2017-10-12T20:17:41.498Z,4.63
2017-10-12T20:20:09.838Z,3.40
2017-10-12T20:22:39.084Z,3.80
2017-10-12T20:25:07.686Z,3.70
2017-10-12T20:27:36.836Z,3.40
2017-10-12T20:30:05.097Z,5.10
2017-10-12T20:32:33.831Z,3.87
2017-10-12T20:35:01.292Z,3.73
2017-10-12T20:37:28.824Z,4.20
2017-10-12T20:39:56.356Z,4.20
2017-10-12T20:42:23.822Z,3.40
2017-10-12T20:44:52.059Z,3.60
2017-10-12T20:47:19.527Z,4.37
2017-10-12T20:49:47.070Z,4.57
2017-10-12T20:52:14.655Z,4.33
2017-10-12T20:59:37.282Z,4.20
2017-10-12T21:02:05.514Z,4.10
2017-10-12T21:04:33.060Z,4.67
2017-10-12T21:07:00.630Z,3.93
2017-10-12T21:09:28.078Z,4.10
2017-10-12T21:11:55.640Z,4.83
2017-10-12T21:14:23.114Z,6.10
2017-10-12T21:16:51.387Z,4.07
2017-10-12T21:19:19.714Z,3.87
2017-10-12T21:21:47.303Z,3.70
2017-10-12T21:24:14.771Z,3.70
2017-10-12T21:26:42.328Z,4.60
2017-10-12T21:29:09.816Z,4.47
2017-10-12T21:31:37.346Z,4.63
2017-10-12T21:34:05.573Z,4.90
2017-10-12T21:36:33.052Z,4.43
2017-10-12T21:39:00.560Z,4.60
2017-10-12T21:41:28.068Z,4.80
2017-10-12T21:43:55.646Z,4.20
2017-10-12T21:46:23.115Z,3.50
2017-10-12T21:48:51.359Z,4.50
2017-10-12T21:51:18.861Z,4.10
2017-10-12T21:53:47.088Z,3.77
2017-10-12T21:56:14.566Z,4.20
2017-10-12T21:58:42.085Z,4.53
2017-10-12T22:01:09.575Z,3.93
2017-10-12T22:03:37.032Z,5.20
2017-10-12T22:06:04.586Z,3.97
2017-10-12T22:08:32.043Z,4.27
2017-10-12T22:10:59.506Z,3.73
2017-10-12T22:13:26.979Z,4.50
2017-10-12T22:15:55.212Z,3.57
2017-10-12T22:18:22.667Z,4.60
2017-10-12T22:20:50.273Z,4.33
2017-10-12T22:23:17.820Z,3.80
2017-10-12T22:25:45.368Z,3.90
2017-10-12T22:28:12.860Z,5.30
2017-10-12T22:30:40.391Z,4.93
2017-10-12T22:33:07.855Z,4.70
2017-10-12T22:35:36.091Z,5.77
2017-10-12T22:38:03.558Z,5.57
2017-10-12T22:40:31.038Z,5.47
2017-10-12T22:42:58.511Z,5.10
2017-10-12T22:45:26.760Z,5.20
2017-10-12T22:47:54.231Z,4.80
2017-10-12T22:50:21.700Z,5.20
2017-10-12T22:52:49.931Z,5.33
2017-10-12T22:55:17.395Z,3.87
2017-10-12T22:57:44.872Z,5.10
2017-10-12T23:00:12.432Z,5.90
2017-10-12T23:02:39.888Z,4.43
2017-10-12T23:05:07.360Z,4.20
2017-10-12T23:07:35.596Z,5.27
2017-10-12T23:10:03.047Z,4.67
2017-10-12T23:12:30.525Z,4.43
2017-10-12T23:14:58.854Z,5.70
2017-10-12T23:17:26.359Z,4.07
2017-10-12T23:19:53.840Z,4.13
2017-10-12T23:22:22.075Z,4.80
2017-10-12T23:24:49.536Z,4.90
2017-10-12T23:27:17.002Z,5.70
2017-10-12T23:29:44.466Z,4.90
2017-10-12T23:32:12.004Z,6.40
2017-10-12T23:34:39.494Z,6.23
2017-10-12T23:37:07.717Z,4.70
2017-10-12T23:39:35.171Z,4.97
2017-10-12T23:42:02.654Z,4.43
2017-10-12T23:44:30.123Z,5.67
2017-10-12T23:46:57.611Z,4.53
2017-10-12T23:49:25.092Z,4.17
2017-10-12T23:51:52.559Z,5.53
2017-10-12T23:54:20.037Z,5.77
2017-10-12T23:56:47.611Z,4.47
2017-10-12T23:59:15.079Z,5.67
